Time;durP1;ratioP1;P1;durP2;ratioP2;P2;SDS_P1;SDS_P2;PMS_P1;PMS_P2;Temp;Humidity;BMP_temperature;BMP_pressure;BME280_temperature;BME280_humidity;BME280_pressure;Samples;Min_cycle;Max_cycle;Signal;HPM_P1;HPM_P2
2022/06/08 00:00:58;;;;;;;5.07;3.63;;;;;;;;;;6218442;28;20229;-72
2022/06/08 00:04:22;;;;;;;4.63;3.30;;;;;;;;;;6218826;28;20228;-72
2022/06/08 00:07:43;;;;;;;7.70;4.20;;;;;;;;;;6216779;28;20241;-72
2022/06/08 00:11:03;;;;;;;7.93;4.07;;;;;;;;;;6220675;28;20232;-72
2022/06/08 00:14:24;;;;;;;8.23;3.53;;;;;;;;;;6214941;28;20857;-72
2022/06/08 00:17:45;;;;;;;4.10;3.43;;;;;;;;;;6215668;28;20224;-72
2022/06/08 00:21:07;;;;;;;6.37;4.27;;;;;;;;;;6218323;28;20260;-72
2022/06/08 00:24:28;;;;;;;5.50;3.63;;;;;;;;;;6219434;28;20315;-72
2022/06/08 00:27:49;;;;;;;5.03;2.97;;;;;;;;;;6217954;28;20233;-73
2022/06/08 00:31:10;;;;;;;6.03;3.00;;;;;;;;;;6221059;28;20232;-72
2022/06/08 00:34:34;;;;;;;3.37;3.03;;;;;;;;;;6201842;28;20224;-73
2022/06/08 00:37:56;;;;;;;8.93;3.80;;;;;;;;;;6201036;28;20345;-72
2022/06/08 00:41:35;;;;;;;4.27;3.37;;;;;;;;;;6220618;28;20245;-72
2022/06/08 00:44:57;;;;;;;7.03;4.20;;;;;;;;;;6217985;28;20244;-73
2022/06/08 00:48:18;;;;;;;5.47;3.30;;;;;;;;;;6201030;28;20228;-72
2022/06/08 00:51:39;;;;;;;6.57;4.17;;;;;;;;;;6221368;28;20311;-72
2022/06/08 00:55:03;;;;;;;4.10;3.17;;;;;;;;;;6200109;28;22381;-71
2022/06/08 00:58:26;;;;;;;5.03;3.73;;;;;;;;;;6205285;28;20229;-72
2022/06/08 01:01:47;;;;;;;6.20;3.60;;;;;;;;;;6217113;28;20228;-71
2022/06/08 01:05:32;;;;;;;7.90;3.87;;;;;;;;;;6201450;28;20262;-72
2022/06/08 01:08:55;;;;;;;6.97;3.50;;;;;;;;;;6195619;28;20256;-72
2022/06/08 01:12:22;;;;;;;6.03;3.77;;;;;;;;;;6195499;28;20225;-72
2022/06/08 01:15:50;;;;;;;6.83;4.33;;;;;;;;;;6205156;28;20228;-73
2022/06/08 01:19:13;;;;;;;5.17;3.43;;;;;;;;;;6215653;28;20229;-73
2022/06/08 01:22:35;;;;;;;7.07;3.63;;;;;;;;;;6211440;28;20240;-72
2022/06/08 01:26:03;;;;;;;5.97;3.97;;;;;;;;;;6205254;28;20701;-72
2022/06/08 01:29:26;;;;;;;13.43;4.73;;;;;;;;;;6214884;28;20228;-72
2022/06/08 01:33:04;;;;;;;7.50;3.90;;;;;;;;;;6214698;28;20501;-72
2022/06/08 01:36:32;;;;;;;6.93;3.50;;;;;;;;;;6218089;28;20220;-72
2022/06/08 01:40:04;;;;;;;6.93;4.43;;;;;;;;;;6206401;28;20225;-72
2022/06/08 01:43:29;;;;;;;4.30;3.97;;;;;;;;;;6221694;28;20735;-72
2022/06/08 01:46:53;;;;;;;6.50;4.53;;;;;;;;;;6204028;28;20244;-71
2022/06/08 01:50:18;;;;;;;7.33;4.60;;;;;;;;;;6213673;28;20294;-72
2022/06/08 01:53:44;;;;;;;8.50;4.67;;;;;;;;;;6223639;28;20228;-71
2022/06/08 01:57:10;;;;;;;6.23;4.13;;;;;;;;;;6223426;28;20224;-72
2022/06/08 02:00:34;;;;;;;7.07;4.67;;;;;;;;;;6206739;28;20248;-72
2022/06/08 02:04:03;;;;;;;4.80;4.17;;;;;;;;;;6205144;28;20244;-71
2022/06/08 02:07:30;;;;;;;9.53;4.87;;;;;;;;;;6209442;28;20335;-73
2022/06/08 02:10:54;;;;;;;5.53;4.00;;;;;;;;;;6209740;28;20501;-71
2022/06/08 02:14:20;;;;;;;7.33;4.20;;;;;;;;;;6203998;28;20697;-72
2022/06/08 02:17:45;;;;;;;4.23;3.73;;;;;;;;;;6204477;28;20255;-72
2022/06/08 02:21:08;;;;;;;6.53;4.50;;;;;;;;;;6217227;28;20266;-71
2022/06/08 02:24:33;;;;;;;4.67;3.87;;;;;;;;;;6209911;28;20228;-71
2022/06/08 02:28:01;;;;;;;5.47;4.40;;;;;;;;;;6205906;28;20245;-72
2022/06/08 02:31:26;;;;;;;4.73;3.90;;;;;;;;;;6207494;28;20323;-72
2022/06/08 02:34:49;;;;;;;5.10;4.07;;;;;;;;;;6204007;28;20713;-71
2022/06/08 02:38:11;;;;;;;4.80;4.50;;;;;;;;;;6217696;28;20224;-72
2022/06/08 02:41:32;;;;;;;4.97;4.40;;;;;;;;;;6204572;28;20326;-72
2022/06/08 02:44:58;;;;;;;8.97;4.93;;;;;;;;;;6210931;28;23263;-73
2022/06/08 02:48:21;;;;;;;7.00;5.43;;;;;;;;;;6204937;28;20228;-72
2022/06/08 02:51:44;;;;;;;6.43;4.87;;;;;;;;;;6215290;28;20229;-71
2022/06/08 02:55:12;;;;;;;5.20;4.40;;;;;;;;;;6203899;28;20225;-72
2022/06/08 02:58:37;;;;;;;14.07;12.67;;;;;;;;;;6218432;28;20228;-71
2022/06/08 03:02:02;;;;;;;13.50;11.60;;;;;;;;;;6216134;28;20263;-72
2022/06/08 03:05:28;;;;;;;8.63;7.73;;;;;;;;;;6215230;28;20661;-72
2022/06/08 03:08:52;;;;;;;8.10;5.50;;;;;;;;;;6214193;28;20232;-73
2022/06/08 03:12:16;;;;;;;9.73;5.87;;;;;;;;;;6220211;28;20236;-71
2022/06/08 03:15:38;;;;;;;6.60;5.50;;;;;;;;;;6208546;28;20224;-71
2022/06/08 03:18:59;;;;;;;9.70;6.13;;;;;;;;;;6206717;28;20233;-72
2022/06/08 03:22:24;;;;;;;11.57;8.70;;;;;;;;;;6210771;28;20256;-72
2022/06/08 03:25:45;;;;;;;9.57;6.07;;;;;;;;;;6211093;28;20261;-72
2022/06/08 03:29:06;;;;;;;10.27;7.47;;;;;;;;;;6202225;28;20524;-72
2022/06/08 03:32:27;;;;;;;7.87;6.80;;;;;;;;;;6201106;28;20237;-72
2022/06/08 03:35:48;;;;;;;7.73;7.00;;;;;;;;;;6207821;28;20233;-71
2022/06/08 03:39:12;;;;;;;11.80;7.60;;;;;;;;;;6203225;28;20232;-71
2022/06/08 03:42:34;;;;;;;9.43;6.13;;;;;;;;;;6204880;28;20232;-71
2022/06/08 03:45:56;;;;;;;8.33;6.50;;;;;;;;;;6217165;28;20244;-73
2022/06/08 03:49:16;;;;;;;7.83;7.10;;;;;;;;;;6202263;28;20240;-71
2022/06/08 03:52:41;;;;;;;8.13;5.80;;;;;;;;;;6202842;28;20516;-71
2022/06/08 03:56:04;;;;;;;7.43;6.67;;;;;;;;;;6221699;28;20233;-71
2022/06/08 03:59:25;;;;;;;8.50;6.60;;;;;;;;;;6205067;28;20331;-70
2022/06/08 04:02:50;;;;;;;7.73;7.03;;;;;;;;;;6215215;28;21237;-71
2022/06/08 04:06:19;;;;;;;9.17;6.47;;;;;;;;;;6221846;28;20248;-72
2022/06/08 04:09:39;;;;;;;8.13;7.10;;;;;;;;;;6202476;28;20264;-72
2022/06/08 04:13:01;;;;;;;8.30;7.50;;;;;;;;;;6215612;28;20236;-72
2022/06/08 04:16:25;;;;;;;7.70;6.97;;;;;;;;;;6210975;28;20315;-71
2022/06/08 04:19:47;;;;;;;9.37;6.40;;;;;;;;;;6216116;28;20250;-72
2022/06/08 04:23:09;;;;;;;9.63;7.37;;;;;;;;;;6212508;28;20232;-71
2022/06/08 04:26:31;;;;;;;11.97;7.90;;;;;;;;;;6201967;28;20229;-71
2022/06/08 04:29:59;;;;;;;9.27;7.70;;;;;;;;;;6202122;28;20319;-71
2022/06/08 04:33:20;;;;;;;11.97;7.93;;;;;;;;;;6203935;28;20228;-71
2022/06/08 04:36:42;;;;;;;8.87;7.83;;;;;;;;;;6204195;28;21457;-71
2022/06/08 04:40:03;;;;;;;8.20;6.90;;;;;;;;;;6207299;28;20240;-72
2022/06/08 04:43:24;;;;;;;8.33;7.47;;;;;;;;;;6221816;28;20240;-71
2022/06/08 04:46:48;;;;;;;8.37;6.97;;;;;;;;;;6218913;28;20232;-72
2022/06/08 04:50:14;;;;;;;10.27;7.40;;;;;;;;;;6214831;28;20232;-71
2022/06/08 04:53:34;;;;;;;13.10;9.00;;;;;;;;;;6202611;28;20224;-72
2022/06/08 04:56:55;;;;;;;8.50;7.70;;;;;;;;;;6205231;28;20249;-71
2022/06/08 05:00:17;;;;;;;11.77;8.03;;;;;;;;;;6214132;28;20604;-70
2022/06/08 05:03:40;;;;;;;7.93;7.10;;;;;;;;;;6199601;28;20320;-71
2022/06/08 05:07:01;;;;;;;9.90;7.50;;;;;;;;;;6188375;28;20237;-71
2022/06/08 05:10:23;;;;;;;7.63;6.93;;;;;;;;;;6191461;28;20282;-72
2022/06/08 05:13:46;;;;;;;13.40;9.00;;;;;;;;;;6192618;28;20229;-70
2022/06/08 05:17:08;;;;;;;8.73;7.73;;;;;;;;;;6220349;28;20231;-70
2022/06/08 05:20:31;;;;;;;8.37;7.67;;;;;;;;;;6220079;28;20256;-72
2022/06/08 05:23:53;;;;;;;10.13;9.10;;;;;;;;;;6209493;28;20307;-71
2022/06/08 05:27:23;;;;;;;9.83;7.40;;;;;;;;;;6225345;28;20251;-71
2022/06/08 05:30:44;;;;;;;11.47;10.03;;;;;;;;;;6220796;28;20236;-71
2022/06/08 05:34:05;;;;;;;14.10;8.87;;;;;;;;;;6212639;28;20734;-72
2022/06/08 05:37:28;;;;;;;11.53;10.20;;;;;;;;;;6202228;28;20240;-71
2022/06/08 05:40:49;;;;;;;9.80;8.80;;;;;;;;;;6203300;28;20591;-71
2022/06/08 05:44:10;;;;;;;14.77;9.30;;;;;;;;;;6209835;28;20512;-69
2022/06/08 05:47:31;;;;;;;11.73;10.60;;;;;;;;;;6211158;28;20233;-68
2022/06/08 05:50:52;;;;;;;22.23;10.37;;;;;;;;;;6213273;28;20259;-69
2022/06/08 05:54:18;;;;;;;11.60;10.50;;;;;;;;;;6208557;28;20309;-69
2022/06/08 05:57:39;;;;;;;13.50;10.93;;;;;;;;;;6211889;28;20245;-69
2022/06/08 06:01:01;;;;;;;12.13;10.20;;;;;;;;;;6211111;28;20252;-69
2022/06/08 06:04:23;;;;;;;11.53;10.20;;;;;;;;;;6233170;28;20237;-69
2022/06/08 06:07:46;;;;;;;11.20;10.07;;;;;;;;;;6202285;28;20610;-69
2022/06/08 06:11:22;;;;;;;13.17;9.77;;;;;;;;;;6213163;28;20267;-69
2022/06/08 06:14:46;;;;;;;10.63;9.53;;;;;;;;;;6214715;28;20500;-70
2022/06/08 06:18:08;;;;;;;10.43;9.00;;;;;;;;;;6208889;28;20229;-70
2022/06/08 06:21:31;;;;;;;12.87;10.17;;;;;;;;;;6211728;28;20242;-69
2022/06/08 06:24:52;;;;;;;9.07;8.27;;;;;;;;;;6227344;28;20260;-69
2022/06/08 06:28:32;;;;;;;10.40;9.23;;;;;;;;;;6228911;28;20893;-69
2022/06/08 06:32:11;;;;;;;9.10;8.20;;;;;;;;;;6224491;28;20233;-69
2022/06/08 06:35:42;;;;;;;9.67;8.67;;;;;;;;;;6211435;28;20228;-71
2022/06/08 06:39:03;;;;;;;8.97;8.07;;;;;;;;;;6211331;28;20608;-69
2022/06/08 06:42:29;;;;;;;11.23;10.23;;;;;;;;;;6208833;28;20315;-69
2022/06/08 06:46:11;;;;;;;8.93;7.20;;;;;;;;;;6211516;28;20677;-68
2022/06/08 06:49:46;;;;;;;11.33;8.37;;;;;;;;;;6198528;28;20232;-69
2022/06/08 06:53:07;;;;;;;11.00;8.80;;;;;;;;;;6207306;28;20232;-73
2022/06/08 06:56:29;;;;;;;11.80;8.87;;;;;;;;;;6213734;28;21029;-73
2022/06/08 06:59:55;;;;;;;9.33;7.67;;;;;;;;;;6211665;28;20225;-72
2022/06/08 07:03:17;;;;;;;9.03;8.20;;;;;;;;;;6215338;28;20519;-72
2022/06/08 07:06:40;;;;;;;10.43;7.97;;;;;;;;;;6230258;28;20732;-72
2022/06/08 07:10:01;;;;;;;9.33;8.47;;;;;;;;;;6208878;28;20319;-72
2022/06/08 07:13:22;;;;;;;11.07;8.13;;;;;;;;;;6213028;28;20323;-71
2022/06/08 07:16:45;;;;;;;9.60;8.57;;;;;;;;;;6211781;28;20580;-72
2022/06/08 07:20:09;;;;;;;10.80;9.20;;;;;;;;;;6210850;28;20225;-72
2022/06/08 07:23:31;;;;;;;8.53;7.73;;;;;;;;;;6226933;28;20594;-71
2022/06/08 07:26:52;;;;;;;11.10;8.93;;;;;;;;;;6227376;28;20233;-68
2022/06/08 07:30:14;;;;;;;10.87;8.90;;;;;;;;;;6222444;28;20228;-68
2022/06/08 07:33:35;;;;;;;11.30;10.20;;;;;;;;;;6229518;28;20225;-68
2022/06/08 07:36:57;;;;;;;11.33;7.93;;;;;;;;;;6220017;28;20224;-69
2022/06/08 07:40:19;;;;;;;8.67;7.87;;;;;;;;;;6222311;28;21057;-70
2022/06/08 07:43:39;;;;;;;9.97;8.30;;;;;;;;;;6227291;28;20229;-69
2022/06/08 07:47:00;;;;;;;8.23;7.17;;;;;;;;;;6228866;28;20233;-69
2022/06/08 07:50:20;;;;;;;8.97;7.93;;;;;;;;;;6230421;28;20419;-69
2022/06/08 07:53:42;;;;;;;9.60;7.37;;;;;;;;;;6217282;28;20312;-70
2022/06/08 07:57:03;;;;;;;8.43;7.60;;;;;;;;;;6222060;28;20241;-69
2022/06/08 08:00:23;;;;;;;10.03;9.00;;;;;;;;;;6225543;28;20221;-67
2022/06/08 08:03:44;;;;;;;9.83;7.97;;;;;;;;;;6225858;28;20231;-71
2022/06/08 08:07:05;;;;;;;8.37;7.50;;;;;;;;;;6221429;28;22658;-71
2022/06/08 08:10:27;;;;;;;7.70;6.73;;;;;;;;;;6226169;28;20240;-71
2022/06/08 08:13:48;;;;;;;9.80;8.37;;;;;;;;;;6225767;28;20224;-70
2022/06/08 08:17:09;;;;;;;7.47;6.63;;;;;;;;;;6229414;28;20630;-72
2022/06/08 08:20:30;;;;;;;7.37;6.70;;;;;;;;;;6212063;28;20634;-72
2022/06/08 08:23:50;;;;;;;9.47;6.50;;;;;;;;;;6225664;28;20228;-71
2022/06/08 08:27:12;;;;;;;10.33;6.67;;;;;;;;;;6225673;28;20685;-72
2022/06/08 08:30:33;;;;;;;6.20;5.60;;;;;;;;;;6222509;28;20625;-74
2022/06/08 08:33:53;;;;;;;6.95;6.25;;;;;;;;;;6223119;28;20600;-71
2022/06/08 08:37:14;;;;;;;6.03;5.32;;;;;;;;;;6227444;28;20220;-72
2022/06/08 08:40:39;;;;;;;6.78;5.97;;;;;;;;;;6227561;28;20240;-71
2022/06/08 08:44:01;;;;;;;7.35;6.63;;;;;;;;;;6226550;28;20260;-73
2022/06/08 08:47:27;;;;;;;6.55;5.95;;;;;;;;;;6223922;28;21065;-71
2022/06/08 08:50:49;;;;;;;9.57;8.65;;;;;;;;;;6232099;28;20225;-72
2022/06/08 08:54:19;;;;;;;8.30;7.60;;;;;;;;;;6227179;28;20248;-71
2022/06/08 08:57:42;;;;;;;8.48;7.43;;;;;;;;;;6227438;28;20236;-71
2022/06/08 09:01:12;;;;;;;9.85;8.95;;;;;;;;;;6230895;28;20549;-71
2022/06/08 09:04:33;;;;;;;10.20;9.32;;;;;;;;;;6229700;28;20224;-71
2022/06/08 09:07:55;;;;;;;12.10;10.32;;;;;;;;;;6232168;28;20224;-73
2022/06/08 09:11:17;;;;;;;10.70;9.70;;;;;;;;;;6229390;28;20241;-72
2022/06/08 09:14:48;;;;;;;10.82;9.80;;;;;;;;;;6231625;28;20236;-72
2022/06/08 09:18:17;;;;;;;18.73;12.05;;;;;;;;;;6222470;28;20510;-72
2022/06/08 09:21:38;;;;;;;14.10;12.88;;;;;;;;;;6225845;28;20239;-71
2022/06/08 09:24:59;;;;;;;12.80;11.50;;;;;;;;;;6230499;28;20597;-71
2022/06/08 09:28:26;;;;;;;13.60;11.85;;;;;;;;;;6229725;28;20311;-71
2022/06/08 09:31:46;;;;;;;13.77;12.43;;;;;;;;;;6228824;28;20232;-72
2022/06/08 09:35:17;;;;;;;12.80;11.50;;;;;;;;;;6230665;28;20748;-70
2022/06/08 09:38:40;;;;;;;13.35;12.07;;;;;;;;;;6227109;28;20240;-72
2022/06/08 09:42:05;;;;;;;13.65;12.35;;;;;;;;;;6230061;28;20233;-71
2022/06/08 09:45:33;;;;;;;12.73;11.43;;;;;;;;;;6217926;28;20233;-71
2022/06/08 09:52:56;;;;;;;9.52;8.73;;;;;;;;;;6191341;28;20233;-70
2022/06/08 09:56:24;;;;;;;11.38;10.20;;;;;;;;;;6226675;28;20590;-73
2022/06/08 09:59:52;;;;;;;10.73;8.98;;;;;;;;;;6199483;28;20822;-70
2022/06/08 10:03:23;;;;;;;10.82;9.93;;;;;;;;;;6226583;28;20224;-71
2022/06/08 10:06:47;;;;;;;11.10;10.13;;;;;;;;;;6221589;28;20237;-70
2022/06/08 10:10:21;;;;;;;12.15;10.93;;;;;;;;;;6229320;28;20237;-70
2022/06/08 10:13:44;;;;;;;12.93;11.75;;;;;;;;;;6229113;28;20542;-70
2022/06/08 10:17:11;;;;;;;11.70;10.60;;;;;;;;;;6225383;28;20228;-71
2022/06/08 10:20:34;;;;;;;12.45;11.35;;;;;;;;;;6225366;28;20524;-71
2022/06/08 10:23:57;;;;;;;12.02;10.75;;;;;;;;;;6228361;28;20241;-70
2022/06/08 10:27:22;;;;;;;11.57;10.32;;;;;;;;;;6216503;28;20244;-71
2022/06/08 10:30:47;;;;;;;10.70;9.82;;;;;;;;;;6224944;28;20232;-70
2022/06/08 10:34:11;;;;;;;12.25;10.80;;;;;;;;;;6207844;28;20233;-69
2022/06/08 10:37:37;;;;;;;11.50;10.50;;;;;;;;;;6209074;28;20232;-70
2022/06/08 10:41:00;;;;;;;10.48;9.57;;;;;;;;;;6234112;28;20232;-69
2022/06/08 10:44:34;;;;;;;11.88;10.60;;;;;;;;;;6229658;28;20237;-70
2022/06/08 10:47:57;;;;;;;11.55;10.52;;;;;;;;;;6229741;28;20232;-70
2022/06/08 10:51:25;;;;;;;11.18;10.07;;;;;;;;;;6222789;28;20264;-70
2022/06/08 10:54:56;;;;;;;11.35;10.52;;;;;;;;;;6197360;28;20461;-69
2022/06/08 10:58:22;;;;;;;9.77;8.98;;;;;;;;;;6214511;28;20258;-70
2022/06/08 11:01:52;;;;;;;10.30;9.40;;;;;;;;;;6227035;28;20232;-71
2022/06/08 11:05:18;;;;;;;9.88;9.15;;;;;;;;;;6223154;28;20233;-70
2022/06/08 11:08:51;;;;;;;10.80;9.82;;;;;;;;;;6220322;28;20344;-70
2022/06/08 11:12:17;;;;;;;9.23;8.45;;;;;;;;;;6221012;28;20323;-70
2022/06/08 11:15:44;;;;;;;10.52;9.32;;;;;;;;;;6226128;28;20229;-69
2022/06/08 11:19:11;;;;;;;9.40;8.68;;;;;;;;;;6220793;28;20233;-72
2022/06/08 11:22:37;;;;;;;12.25;10.20;;;;;;;;;;6222102;28;20228;-70
2022/06/08 11:26:12;;;;;;;9.07;8.20;;;;;;;;;;6231693;28;20220;-71
2022/06/08 11:29:42;;;;;;;10.15;9.25;;;;;;;;;;6221923;28;20613;-71
2022/06/08 11:33:11;;;;;;;8.98;8.27;;;;;;;;;;6220328;28;20662;-71
2022/06/08 11:36:43;;;;;;;8.93;8.10;;;;;;;;;;6218111;28;20232;-70
2022/06/08 11:40:11;;;;;;;9.85;9.10;;;;;;;;;;6222727;28;20232;-71
2022/06/08 11:43:37;;;;;;;7.72;7.03;;;;;;;;;;6222682;28;20502;-70
2022/06/08 11:47:02;;;;;;;9.15;8.45;;;;;;;;;;6218694;28;20240;-69
2022/06/08 11:50:24;;;;;;;9.95;7.80;;;;;;;;;;6220684;28;20244;-70
2022/06/08 11:53:49;;;;;;;7.93;7.22;;;;;;;;;;6205854;28;20237;-70
2022/06/08 11:57:13;;;;;;;7.53;6.88;;;;;;;;;;6208630;28;20232;-71
2022/06/08 12:00:36;;;;;;;8.35;7.75;;;;;;;;;;6220841;28;20625;-71
2022/06/08 12:04:00;;;;;;;7.10;6.50;;;;;;;;;;6219449;28;20232;-71
2022/06/08 12:07:36;;;;;;;7.65;7.05;;;;;;;;;;6220248;28;20244;-71
2022/06/08 12:10:59;;;;;;;6.82;6.13;;;;;;;;;;6221637;28;20229;-71
2022/06/08 12:14:25;;;;;;;6.93;6.32;;;;;;;;;;6222958;28;20665;-70
2022/06/08 12:17:46;;;;;;;6.13;5.53;;;;;;;;;;6215068;28;20520;-70
2022/06/08 12:21:10;;;;;;;14.40;7.97;;;;;;;;;;6222820;28;20225;-70
2022/06/08 12:24:31;;;;;;;6.75;6.15;;;;;;;;;;6223962;28;20232;-71
2022/06/08 12:27:55;;;;;;;7.95;7.25;;;;;;;;;;6221081;28;20233;-72
2022/06/08 12:31:25;;;;;;;8.18;6.93;;;;;;;;;;6222192;28;20393;-70
2022/06/08 12:34:47;;;;;;;7.00;6.38;;;;;;;;;;6225544;28;20236;-71
2022/06/08 12:38:18;;;;;;;7.95;7.30;;;;;;;;;;6219818;28;20236;-71
2022/06/08 12:41:40;;;;;;;7.28;6.65;;;;;;;;;;6222578;28;20223;-71
2022/06/08 12:45:03;;;;;;;8.15;7.45;;;;;;;;;;6222379;28;20228;-70
2022/06/08 12:48:26;;;;;;;7.40;6.80;;;;;;;;;;6225197;28;20240;-71
2022/06/08 12:51:49;;;;;;;7.65;7.10;;;;;;;;;;6225376;28;20228;-71
2022/06/08 12:55:14;;;;;;;7.90;7.15;;;;;;;;;;6216841;28;20232;-70
2022/06/08 12:58:34;;;;;;;7.50;6.78;;;;;;;;;;6224073;28;20235;-71
2022/06/08 13:01:57;;;;;;;7.65;7.05;;;;;;;;;;6214036;28;20236;-69
2022/06/08 13:05:19;;;;;;;7.78;6.97;;;;;;;;;;6219612;28;20220;-71
2022/06/08 13:08:40;;;;;;;7.07;6.47;;;;;;;;;;6215923;28;20240;-71
2022/06/08 13:12:00;;;;;;;8.52;7.55;;;;;;;;;;6215012;28;20237;-70
2022/06/08 13:15:23;;;;;;;6.65;6.20;;;;;;;;;;6221613;28;20244;-71
2022/06/08 13:18:45;;;;;;;6.22;5.63;;;;;;;;;;6223318;28;20225;-72
2022/06/08 13:22:06;;;;;;;5.90;5.50;;;;;;;;;;6215448;28;20229;-71
2022/06/08 13:25:27;;;;;;;6.95;6.30;;;;;;;;;;6222537;28;20315;-73
2022/06/08 13:28:48;;;;;;;6.10;5.55;;;;;;;;;;6224963;28;20262;-71
2022/06/08 13:32:13;;;;;;;5.65;4.97;;;;;;;;;;6221034;28;20233;-72
2022/06/08 13:35:35;;;;;;;6.72;5.70;;;;;;;;;;6223847;28;20228;-73
2022/06/08 13:38:59;;;;;;;5.88;5.50;;;;;;;;;;6225386;28;20221;-72
2022/06/08 13:42:19;;;;;;;6.85;6.18;;;;;;;;;;6222957;28;21052;-71
2022/06/08 13:45:43;;;;;;;5.15;4.78;;;;;;;;;;6232884;28;20641;-72
2022/06/08 13:49:04;;;;;;;5.10;4.70;;;;;;;;;;6234194;28;21514;-72
2022/06/08 13:52:27;;;;;;;5.20;4.80;;;;;;;;;;6229201;28;20232;-71
2022/06/08 13:55:50;;;;;;;5.18;4.78;;;;;;;;;;6231301;28;20224;-71
2022/06/08 13:59:11;;;;;;;4.65;4.22;;;;;;;;;;6237278;28;20225;-72
2022/06/08 14:02:37;;;;;;;5.35;4.95;;;;;;;;;;6229549;28;20685;-72
2022/06/08 14:13:18;;;;;;;5.35;4.85;;;;;;;;;;6234269;28;20233;-71
2022/06/08 14:16:39;;;;;;;5.68;5.05;;;;;;;;;;6235307;28;20224;-72
2022/06/08 14:20:00;;;;;;;5.13;4.50;;;;;;;;;;6235031;28;20228;-71
2022/06/08 14:23:21;;;;;;;5.50;4.82;;;;;;;;;;6229153;28;20229;-72
2022/06/08 14:26:43;;;;;;;4.13;3.83;;;;;;;;;;6232741;28;20232;-71
2022/06/08 14:30:05;;;;;;;5.38;4.97;;;;;;;;;;6219341;28;20873;-71
2022/06/08 14:33:27;;;;;;;5.05;4.63;;;;;;;;;;6222888;28;20261;-71
2022/06/08 14:36:49;;;;;;;4.35;4.05;;;;;;;;;;6221796;28;20229;-72
2022/06/08 14:40:17;;;;;;;4.70;4.40;;;;;;;;;;6222061;28;20705;-72
2022/06/08 14:43:39;;;;;;;4.80;4.47;;;;;;;;;;6223403;28;20236;-72
2022/06/08 14:47:01;;;;;;;5.18;4.80;;;;;;;;;;6230281;28;20244;-73
2022/06/08 14:50:25;;;;;;;3.75;3.45;;;;;;;;;;6223192;28;20233;-71
2022/06/08 14:53:46;;;;;;;3.97;3.67;;;;;;;;;;6231663;28;20244;-73
2022/06/08 14:57:07;;;;;;;4.18;3.88;;;;;;;;;;6226014;28;20232;-72
2022/06/08 15:00:30;;;;;;;5.07;4.70;;;;;;;;;;6232373;28;20267;-72
2022/06/08 15:03:51;;;;;;;5.30;4.90;;;;;;;;;;6231268;28;20344;-73
2022/06/08 15:07:11;;;;;;;4.90;4.50;;;;;;;;;;6226836;28;20232;-71
2022/06/08 15:11:57;;;;;;;5.50;4.53;;;;;;;;;;6232308;28;20606;-71
2022/06/08 15:14:15;;;;;;;4.72;4.40;;;;;;;;;;6228600;28;20622;-72
2022/06/08 15:17:36;;;;;;;4.53;4.22;;;;;;;;;;6228173;28;20240;-71
2022/06/08 15:20:59;;;;;;;4.32;3.92;;;;;;;;;;6226358;28;20224;-72
2022/06/08 15:24:21;;;;;;;6.07;4.60;;;;;;;;;;6226529;28;20308;-72
2022/06/08 15:27:45;;;;;;;4.57;4.00;;;;;;;;;;6221703;28;20240;-71
2022/06/08 15:31:06;;;;;;;4.78;4.43;;;;;;;;;;6224330;28;20240;-72
2022/06/08 15:34:32;;;;;;;5.20;4.80;;;;;;;;;;6222420;28;20633;-71
2022/06/08 15:37:53;;;;;;;4.50;4.20;;;;;;;;;;6217371;28;20237;-72
2022/06/08 15:41:14;;;;;;;5.35;4.95;;;;;;;;;;6227130;28;20228;-72
2022/06/08 15:44:35;;;;;;;4.43;4.13;;;;;;;;;;6229264;28;20224;-72
2022/06/08 15:47:59;;;;;;;4.43;4.07;;;;;;;;;;6212097;28;20650;-72
2022/06/08 15:51:22;;;;;;;4.63;4.22;;;;;;;;;;6204441;28;20618;-72
2022/06/08 15:54:46;;;;;;;5.05;4.63;;;;;;;;;;6220778;28;20224;-72
2022/06/08 15:58:08;;;;;;;6.72;5.90;;;;;;;;;;6214586;28;20315;-73
2022/06/08 16:01:31;;;;;;;5.72;5.32;;;;;;;;;;6222447;28;20256;-73
2022/06/08 16:04:52;;;;;;;5.13;4.72;;;;;;;;;;6216975;28;20228;-72
2022/06/08 16:08:15;;;;;;;7.97;7.32;;;;;;;;;;6219390;28;20229;-72
2022/06/08 16:11:38;;;;;;;5.43;4.43;;;;;;;;;;6222424;28;20252;-73
2022/06/08 16:14:59;;;;;;;5.25;4.78;;;;;;;;;;6222231;28;20224;-73
2022/06/08 16:18:20;;;;;;;4.95;4.45;;;;;;;;;;6212847;28;20225;-73
2022/06/08 16:21:40;;;;;;;22.23;20.02;;;;;;;;;;6210411;28;20232;-72
2022/06/08 16:25:03;;;;;;;9.88;8.52;;;;;;;;;;6207905;28;20228;-72
2022/06/08 16:28:25;;;;;;;4.65;4.25;;;;;;;;;;6212334;28;20240;-72
2022/06/08 16:31:45;;;;;;;4.70;4.30;;;;;;;;;;6214767;28;20232;-72
2022/06/08 16:35:07;;;;;;;4.80;4.50;;;;;;;;;;6211800;28;20237;-72
2022/06/08 16:38:27;;;;;;;4.78;4.32;;;;;;;;;;6217139;28;20232;-73
2022/06/08 16:41:49;;;;;;;4.70;4.30;;;;;;;;;;6212825;28;20255;-72
2022/06/08 16:45:11;;;;;;;5.40;4.95;;;;;;;;;;6212810;28;20229;-73
2022/06/08 16:48:33;;;;;;;4.70;4.30;;;;;;;;;;6212676;28;20875;-71
2022/06/08 16:51:54;;;;;;;4.65;4.25;;;;;;;;;;6217443;28;20228;-71
2022/06/08 16:55:15;;;;;;;4.70;4.18;;;;;;;;;;6214205;28;20233;-71
2022/06/08 17:02:16;;;;;;;5.10;4.70;;;;;;;;;;6210905;28;20697;-71
2022/06/08 17:05:37;;;;;;;5.07;4.68;;;;;;;;;;6215402;28;20244;-71
2022/06/08 17:08:58;;;;;;;4.85;4.45;;;;;;;;;;6214843;28;20236;-71
2022/06/08 17:12:21;;;;;;;5.22;4.30;;;;;;;;;;6223851;28;20236;-70
2022/06/08 17:15:43;;;;;;;5.40;3.97;;;;;;;;;;6229379;28;20621;-71
2022/06/08 17:19:04;;;;;;;4.90;4.18;;;;;;;;;;6224376;28;20225;-71
2022/06/08 17:22:25;;;;;;;4.68;4.28;;;;;;;;;;6226833;28;20236;-71
2022/06/08 17:25:46;;;;;;;4.32;3.92;;;;;;;;;;6224123;28;20229;-72
2022/06/08 17:29:09;;;;;;;4.55;3.47;;;;;;;;;;6221430;28;20610;-71
2022/06/08 17:32:30;;;;;;;4.97;4.38;;;;;;;;;;6218688;28;20623;-72
2022/06/08 17:35:51;;;;;;;4.47;4.18;;;;;;;;;;6217329;28;20236;-71
2022/06/08 17:39:13;;;;;;;4.50;4.13;;;;;;;;;;6213944;28;20236;-72
2022/06/08 17:42:33;;;;;;;4.63;4.22;;;;;;;;;;6220142;28;20251;-72
2022/06/08 17:45:54;;;;;;;4.22;3.83;;;;;;;;;;6220069;28;20229;-72
2022/06/08 17:49:16;;;;;;;3.28;2.97;;;;;;;;;;6225639;28;20256;-73
2022/06/08 17:52:38;;;;;;;4.60;3.42;;;;;;;;;;6224013;28;20260;-71
2022/06/08 17:55:59;;;;;;;3.65;2.75;;;;;;;;;;6225688;28;20220;-71
2022/06/08 17:59:20;;;;;;;3.55;3.33;;;;;;;;;;6211977;28;20232;-70
2022/06/08 18:02:42;;;;;;;3.38;2.95;;;;;;;;;;6215925;28;20232;-72
2022/06/08 18:06:04;;;;;;;3.47;3.17;;;;;;;;;;6206290;28;20232;-72
2022/06/08 18:09:25;;;;;;;3.83;3.45;;;;;;;;;;6219950;28;20771;-72
2022/06/08 18:12:46;;;;;;;4.60;4.20;;;;;;;;;;6225966;28;20236;-72
2022/06/08 18:16:06;;;;;;;3.55;3.10;;;;;;;;;;6228544;28;20258;-72
2022/06/08 18:19:28;;;;;;;4.65;3.78;;;;;;;;;;6224665;28;20679;-72
2022/06/08 18:22:50;;;;;;;2.90;2.70;;;;;;;;;;6228471;28;20225;-71
2022/06/08 18:26:16;;;;;;;3.60;3.22;;;;;;;;;;6220954;28;20235;-72
2022/06/08 18:29:39;;;;;;;2.92;2.72;;;;;;;;;;6213269;28;20332;-72
2022/06/08 18:32:59;;;;;;;4.38;3.97;;;;;;;;;;6220214;28;20327;-72
2022/06/08 18:36:20;;;;;;;4.22;3.15;;;;;;;;;;6220963;28;20319;-71
2022/06/08 18:39:42;;;;;;;3.45;2.90;;;;;;;;;;6221846;28;20228;-72
2022/06/08 18:43:06;;;;;;;4.47;3.40;;;;;;;;;;6218946;28;20552;-72
2022/06/08 18:46:27;;;;;;;3.65;3.35;;;;;;;;;;6219400;28;20622;-72
2022/06/08 18:49:48;;;;;;;3.22;3.03;;;;;;;;;;6220991;28;20237;-72
2022/06/08 18:53:09;;;;;;;3.60;3.30;;;;;;;;;;6225474;28;20275;-71
2022/06/08 18:56:31;;;;;;;2.85;2.55;;;;;;;;;;6223170;28;20323;-71
2022/06/08 18:59:52;;;;;;;2.80;2.60;;;;;;;;;;6223935;28;20896;-72
2022/06/08 19:03:12;;;;;;;4.85;3.78;;;;;;;;;;6225068;28;20315;-71
2022/06/08 19:06:34;;;;;;;4.30;3.15;;;;;;;;;;6217247;28;20833;-71
2022/06/08 19:09:55;;;;;;;3.85;3.55;;;;;;;;;;6207090;28;20224;-72
2022/06/08 19:13:17;;;;;;;3.97;3.67;;;;;;;;;;6216841;28;20229;-71
2022/06/08 19:16:38;;;;;;;3.13;2.83;;;;;;;;;;6221401;28;20233;-71
2022/06/08 19:23:41;;;;;;;4.82;4.38;;;;;;;;;;6228789;28;20220;-72
2022/06/08 19:27:02;;;;;;;3.40;2.90;;;;;;;;;;6224806;28;20319;-72
2022/06/08 19:30:24;;;;;;;3.63;3.33;;;;;;;;;;6218946;28;20236;-70
2022/06/08 19:33:47;;;;;;;3.70;2.92;;;;;;;;;;6219090;28;20237;-72
2022/06/08 19:37:08;;;;;;;2.97;2.78;;;;;;;;;;6221373;28;20238;-71
2022/06/08 19:40:29;;;;;;;3.50;3.17;;;;;;;;;;6222061;28;20565;-72
2022/06/08 19:43:50;;;;;;;4.28;2.35;;;;;;;;;;6213454;28;20248;-72
2022/06/08 19:47:12;;;;;;;2.53;2.15;;;;;;;;;;6214924;28;20237;-68
2022/06/08 19:50:33;;;;;;;3.72;1.90;;;;;;;;;;6203723;28;20806;-72
2022/06/08 19:53:54;;;;;;;1.60;1.50;;;;;;;;;;6193295;28;20236;-71
2022/06/08 19:57:15;;;;;;;4.03;1.55;;;;;;;;;;6213888;28;20314;-73
2022/06/08 20:00:36;;;;;;;2.83;2.03;;;;;;;;;;6202554;28;20320;-70
2022/06/08 20:03:58;;;;;;;3.47;1.83;;;;;;;;;;6200987;28;20859;-70
2022/06/08 20:07:19;;;;;;;4.25;2.03;;;;;;;;;;6215304;28;20282;-70
2022/06/08 20:10:41;;;;;;;2.05;1.95;;;;;;;;;;6211948;28;20232;-70
2022/06/08 20:14:02;;;;;;;1.90;1.80;;;;;;;;;;6214121;28;20279;-71
2022/06/08 20:17:24;;;;;;;2.35;2.03;;;;;;;;;;6166870;28;20221;-69
2022/06/08 20:20:47;;;;;;;3.53;1.95;;;;;;;;;;6197062;28;20233;-70
2022/06/08 20:24:09;;;;;;;4.72;1.80;;;;;;;;;;6203251;28;20240;-70
2022/06/08 20:27:29;;;;;;;2.83;1.67;;;;;;;;;;6200684;28;20232;-70
2022/06/08 20:30:51;;;;;;;3.03;2.72;;;;;;;;;;6195489;28;20229;-71